createdAt,value
2022-08-08T00:02:03.508Z,16.13
2022-08-08T00:04:56.061Z,16.12
2022-08-08T00:07:53.432Z,16.56
2022-08-08T00:10:33.369Z,13.97
2022-08-08T00:14:15.000Z,13.51
2022-08-08T00:16:21.806Z,13.60
2022-08-08T00:19:20.137Z,16.33
2022-08-08T00:21:52.568Z,14.71
2022-08-08T00:24:30.070Z,13.79
2022-08-08T00:27:01.128Z,16.14
2022-08-08T00:29:44.905Z,15.31
2022-08-08T00:32:38.430Z,12.56
2022-08-08T00:35:37.549Z,16.19
2022-08-08T00:38:16.739Z,16.15
2022-08-08T00:41:12.079Z,16.11
2022-08-08T00:43:59.379Z,15.60
2022-08-08T00:46:57.369Z,15.97
2022-08-08T00:49:35.484Z,15.94
2022-08-08T00:52:05.600Z,15.86
2022-08-08T00:54:52.873Z,15.40
2022-08-08T00:57:45.205Z,15.86
2022-08-08T01:00:33.390Z,15.82
2022-08-08T01:04:01.353Z,15.53
2022-08-08T01:06:35.591Z,15.71
2022-08-08T01:09:35.710Z,15.68
2022-08-08T01:12:31.205Z,15.58
2022-08-08T01:15:37.240Z,15.52
2022-08-08T01:18:59.140Z,15.45
2022-08-08T01:22:09.949Z,15.40
2022-08-08T01:25:26.468Z,15.37
2022-08-08T01:28:28.169Z,15.34
2022-08-08T01:32:12.751Z,15.28
2022-08-08T01:34:21.337Z,12.25
2022-08-08T01:37:56.683Z,13.88
2022-08-08T01:40:32.960Z,14.53
2022-08-08T01:43:21.910Z,15.03
2022-08-08T01:46:27.950Z,15.21
2022-08-08T01:49:00.530Z,15.18
2022-08-08T01:52:41.311Z,15.11
2022-08-08T01:55:27.111Z,11.46
2022-08-08T01:58:13.825Z,13.06
2022-08-08T02:01:02.736Z,13.20
2022-08-08T02:04:01.918Z,14.87
2022-08-08T02:06:44.064Z,13.55
2022-08-08T02:10:03.388Z,14.79
2022-08-08T02:12:53.945Z,13.08
2022-08-08T02:15:34.590Z,13.44
2022-08-08T02:18:17.068Z,14.45
2022-08-08T02:21:28.567Z,14.60
2022-08-08T02:24:03.099Z,12.84
2022-08-08T02:26:34.945Z,13.81
2022-08-08T02:29:22.064Z,14.63
2022-08-08T02:32:22.350Z,14.66
2022-08-08T02:35:18.292Z,14.69
2022-08-08T02:38:14.742Z,14.63
2022-08-08T02:40:55.647Z,13.99
2022-08-08T02:44:39.076Z,14.52
2022-08-08T02:46:59.035Z,14.43
2022-08-08T02:49:48.175Z,14.37
2022-08-08T02:52:41.068Z,14.34
2022-08-08T02:55:47.282Z,14.33
2022-08-08T02:58:37.094Z,14.27
2022-08-08T03:01:27.530Z,14.22
2022-08-08T03:05:07.911Z,14.17
2022-08-08T03:07:41.206Z,14.15
2022-08-08T03:10:44.739Z,14.13
2022-08-08T03:15:59.847Z,14.05
2022-08-08T03:17:10.249Z,14.04
2022-08-08T03:20:08.055Z,8.82
2022-08-08T03:22:56.000Z,12.39
2022-08-08T03:25:36.163Z,13.15
2022-08-08T03:28:29.964Z,13.25
2022-08-08T03:31:22.187Z,10.78
2022-08-08T03:33:55.837Z,10.60
2022-08-08T03:36:30.329Z,12.33
2022-08-08T03:39:14.191Z,13.80
2022-08-08T03:42:27.761Z,12.33
2022-08-08T03:44:35.242Z,10.79
2022-08-08T03:47:17.614Z,11.42
2022-08-08T03:50:00.769Z,12.01
2022-08-08T03:52:36.349Z,13.57
2022-08-08T03:55:19.979Z,9.08
2022-08-08T03:58:36.269Z,13.57
2022-08-08T04:01:23.527Z,13.32
2022-08-08T04:04:01.994Z,13.25
2022-08-08T04:06:39.172Z,13.09
2022-08-08T04:09:11.473Z,13.37
2022-08-08T04:11:58.109Z,13.61
2022-08-08T04:14:36.344Z,13.64
2022-08-08T04:17:07.126Z,10.81
2022-08-08T04:19:51.888Z,11.84
2022-08-08T04:22:24.090Z,11.78
2022-08-08T04:24:56.351Z,13.74
2022-08-08T04:28:01.770Z,13.77
2022-08-08T04:30:17.162Z,11.16
2022-08-08T04:32:50.312Z,7.88
2022-08-08T04:35:22.889Z,11.03
2022-08-08T04:37:55.047Z,12.96
2022-08-08T04:40:32.975Z,14.05
2022-08-08T04:43:01.875Z,10.02
2022-08-08T04:45:37.181Z,11.67
2022-08-08T04:48:05.583Z,13.71
2022-08-08T04:50:38.932Z,11.13
2022-08-08T04:54:26.862Z,14.45
2022-08-08T04:56:04.958Z,11.60
2022-08-08T04:58:34.767Z,13.09
2022-08-08T05:01:09.151Z,13.17
2022-08-08T05:04:09.364Z,14.32
2022-08-08T05:06:39.074Z,14.92
2022-08-08T05:09:10.189Z,14.97
2022-08-08T05:11:41.531Z,14.04
2022-08-08T05:14:12.719Z,14.26
2022-08-08T05:16:53.749Z,11.41
2022-08-08T05:20:11.851Z,14.92
2022-08-08T05:22:19.058Z,14.40
2022-08-08T05:24:49.619Z,14.79
2022-08-08T05:27:20.333Z,16.14
2022-08-08T05:29:52.201Z,14.43
2022-08-08T05:32:28.058Z,18.16
2022-08-08T05:35:04.781Z,20.82
2022-08-08T05:37:52.821Z,21.97
2022-08-08T05:40:30.398Z,21.24
2022-08-08T05:43:38.193Z,23.29
2022-08-08T05:46:02.993Z,26.31
2022-08-08T05:48:34.711Z,26.75
2022-08-08T05:51:14.445Z,26.59
2022-08-08T05:54:25.706Z,28.00
2022-08-08T05:56:42.227Z,26.57
2022-08-08T06:00:00.313Z,28.05
2022-08-08T06:02:40.979Z,28.57
2022-08-08T06:05:33.687Z,28.47
2022-08-08T06:08:09.978Z,26.83
2022-08-08T06:10:56.146Z,25.10
2022-08-08T06:13:25.322Z,27.30
2022-08-08T06:15:56.633Z,28.72
2022-08-08T06:18:36.390Z,26.65
2022-08-08T06:21:27.871Z,26.66
2022-08-08T06:24:02.428Z,30.62
2022-08-08T06:26:45.501Z,31.53
2022-08-08T06:29:56.675Z,32.74
2022-08-08T06:32:17.183Z,32.50
2022-08-08T06:35:12.212Z,32.27
2022-08-08T06:37:51.014Z,33.03
2022-08-08T06:40:32.308Z,32.04
2022-08-08T06:43:09.964Z,32.64
2022-08-08T06:45:48.185Z,32.40
2022-08-08T06:48:18.781Z,29.00
2022-08-08T06:50:49.732Z,34.00
2022-08-08T06:53:20.951Z,32.67
2022-08-08T06:56:02.534Z,33.02
2022-08-08T06:58:34.149Z,32.23
2022-08-08T07:01:52.368Z,33.45
2022-08-08T07:04:39.585Z,35.15
2022-08-08T07:06:55.263Z,35.73
2022-08-08T07:09:45.564Z,34.80
2022-08-08T07:12:30.525Z,35.81
2022-08-08T07:15:23.162Z,35.15
2022-08-08T07:18:35.113Z,34.55
2022-08-08T07:21:05.186Z,37.46
2022-08-08T07:24:03.853Z,38.11
2022-08-08T07:26:53.243Z,37.93
2022-08-08T07:29:59.845Z,36.01
2022-08-08T07:32:11.057Z,36.96
2022-08-08T07:35:00.395Z,36.51
2022-08-08T07:37:55.946Z,37.35
2022-08-08T07:40:30.019Z,37.17
2022-08-08T07:43:09.076Z,37.25
2022-08-08T07:46:05.188Z,37.12
2022-08-08T07:48:32.229Z,36.36
2022-08-08T07:51:04.222Z,37.62
2022-08-08T07:54:26.592Z,38.34
2022-08-08T07:57:10.386Z,39.12
2022-08-08T07:59:53.711Z,37.82
2022-08-08T08:02:33.084Z,40.51
2022-08-08T08:05:15.510Z,38.36
2022-08-08T08:07:54.583Z,40.25
2022-08-08T08:10:33.156Z,38.28
2022-08-08T08:13:25.474Z,39.18
2022-08-08T08:16:19.490Z,39.66
2022-08-08T08:18:59.142Z,40.83
2022-08-08T08:21:52.326Z,41.08
2022-08-08T08:24:36.020Z,38.66
2022-08-08T08:27:08.390Z,39.33
2022-08-08T08:29:39.685Z,38.18
2022-08-08T08:32:11.069Z,37.51
2022-08-08T08:34:43.084Z,38.26
2022-08-08T08:37:20.260Z,37.09
2022-08-08T08:40:01.258Z,38.71
2022-08-08T08:42:36.275Z,37.84
2022-08-08T08:45:20.692Z,37.54
2022-08-08T08:47:54.003Z,36.93
2022-08-08T08:50:33.879Z,38.90
2022-08-08T08:53:55.304Z,37.64
2022-08-08T08:56:02.761Z,37.82
2022-08-08T08:58:46.839Z,36.42
2022-08-08T09:01:24.851Z,38.45
2022-08-08T09:04:00.209Z,35.93
2022-08-08T09:06:50.200Z,38.50
2022-08-08T09:09:39.973Z,37.92
2022-08-08T09:12:20.062Z,35.97
2022-08-08T09:14:50.160Z,35.86
2022-08-08T09:17:31.680Z,35.95
2022-08-08T09:22:01.639Z,35.34
2022-08-08T09:23:00.238Z,37.80
2022-08-08T09:25:36.243Z,36.67
2022-08-08T09:28:35.208Z,37.80
2022-08-08T09:31:12.648Z,37.03
2022-08-08T09:34:05.996Z,33.48
2022-08-08T09:36:36.114Z,34.79
2022-08-08T09:39:10.306Z,35.41
2022-08-08T09:42:14.077Z,34.14
2022-08-08T09:44:46.291Z,35.32
2022-08-08T09:48:05.066Z,34.14
2022-08-08T09:50:13.595Z,34.79
2022-08-08T09:53:05.634Z,33.97
2022-08-08T09:56:03.424Z,34.83
2022-08-08T09:58:33.206Z,33.30
2022-08-08T10:01:14.281Z,31.57
2022-08-08T10:03:46.981Z,31.42
2022-08-08T10:06:29.523Z,31.62
2022-08-08T10:08:57.400Z,31.78
2022-08-08T10:12:27.250Z,32.92
2022-08-08T10:14:28.606Z,31.21
2022-08-08T10:17:56.558Z,33.00
2022-08-08T10:20:00.717Z,29.91
2022-08-08T10:22:32.284Z,28.87
2022-08-08T10:25:04.741Z,29.89
2022-08-08T10:27:42.596Z,27.65
2022-08-08T10:30:16.679Z,28.16
2022-08-08T10:33:12.497Z,29.98
2022-08-08T10:36:19.735Z,28.71
2022-08-08T10:38:35.559Z,29.38
2022-08-08T10:41:16.929Z,27.99
2022-08-08T10:43:50.826Z,28.28
2022-08-08T10:46:30.091Z,28.75
2022-08-08T10:48:59.555Z,27.12
2022-08-08T10:51:31.049Z,24.28
2022-08-08T10:54:02.310Z,22.92
2022-08-08T10:56:35.460Z,24.66
2022-08-08T10:59:14.098Z,26.21
2022-08-08T11:01:49.634Z,24.81
2022-08-08T11:04:38.402Z,25.71
2022-08-08T11:07:07.487Z,26.36
2022-08-08T11:09:50.324Z,26.46
2022-08-08T11:12:18.253Z,25.27
2022-08-08T11:14:54.250Z,25.84
2022-08-08T11:18:01.000Z,28.09
2022-08-08T11:20:14.615Z,22.90
2022-08-08T11:22:51.725Z,25.92
2022-08-08T11:25:52.896Z,25.62
2022-08-08T11:28:13.082Z,27.69
2022-08-08T11:30:50.076Z,27.71
2022-08-08T11:34:01.736Z,26.46
2022-08-08T11:36:13.376Z,24.26
2022-08-08T11:38:53.798Z,26.62
2022-08-08T11:41:24.555Z,25.65
2022-08-08T11:43:54.279Z,25.55
2022-08-08T11:46:28.148Z,22.34
2022-08-08T11:48:58.326Z,22.83
2022-08-08T11:51:38.185Z,25.04
2022-08-08T11:54:26.850Z,26.89
2022-08-08T11:56:57.667Z,25.56
2022-08-08T11:59:57.858Z,26.65
2022-08-08T12:02:40.132Z,27.75
2022-08-08T12:05:13.806Z,26.07
2022-08-08T12:07:51.431Z,26.38
2022-08-08T12:10:28.769Z,25.70
2022-08-08T12:13:09.638Z,27.68
2022-08-08T12:15:40.126Z,26.96
2022-08-08T12:18:20.927Z,27.75
2022-08-08T12:20:50.337Z,27.21
2022-08-08T12:23:43.588Z,27.50
2022-08-08T12:26:36.426Z,27.50
2022-08-08T12:29:40.141Z,26.26
2022-08-08T12:32:19.558Z,25.10
2022-08-08T12:35:01.239Z,27.73
2022-08-08T12:37:41.130Z,24.94
2022-08-08T12:40:22.991Z,27.01
2022-08-08T12:42:53.239Z,25.79
2022-08-08T12:45:58.246Z,27.92
2022-08-08T12:48:37.967Z,27.95
2022-08-08T12:51:11.003Z,27.88
2022-08-08T12:53:58.968Z,26.27
2022-08-08T12:56:37.588Z,27.98
2022-08-08T12:59:17.730Z,27.71
2022-08-08T13:01:56.503Z,25.98
2022-08-08T13:04:25.832Z,27.43
2022-08-08T13:06:54.262Z,27.89
2022-08-08T13:09:43.165Z,27.98
2022-08-08T13:12:29.164Z,27.32
2022-08-08T13:15:11.235Z,24.26
2022-08-08T13:18:09.012Z,28.01
2022-08-08T13:20:27.592Z,25.37
2022-08-08T13:23:30.229Z,27.38
2022-08-08T13:25:44.083Z,26.15
2022-08-08T13:28:28.905Z,27.70
2022-08-08T13:31:04.739Z,24.14
2022-08-08T13:33:42.415Z,24.79
2022-08-08T13:36:11.200Z,27.37
2022-08-08T13:38:39.881Z,26.81
2022-08-08T13:41:16.923Z,26.29
2022-08-08T13:43:51.157Z,26.61
2022-08-08T13:46:26.686Z,27.65
2022-08-08T13:49:12.198Z,27.60
2022-08-08T13:51:57.231Z,27.22
2022-08-08T13:54:29.262Z,27.88
2022-08-08T13:57:08.846Z,28.37
2022-08-08T13:59:48.518Z,28.18
2022-08-08T14:02:20.625Z,28.25
2022-08-08T14:04:55.658Z,28.12
2022-08-08T14:07:31.451Z,28.08
2022-08-08T14:10:11.633Z,25.86
2022-08-08T14:12:43.706Z,28.04
2022-08-08T14:15:31.445Z,28.03
2022-08-08T14:18:36.067Z,26.72
2022-08-08T14:21:03.023Z,27.96
2022-08-08T14:24:04.532Z,26.61
2022-08-08T14:26:33.418Z,27.60
2022-08-08T14:29:06.166Z,27.96
2022-08-08T14:32:11.039Z,26.01
2022-08-08T14:34:37.151Z,25.97
2022-08-08T14:37:08.124Z,28.15
2022-08-08T14:40:05.428Z,26.37
2022-08-08T14:42:55.359Z,27.95
2022-08-08T14:45:33.488Z,26.01
2022-08-08T14:48:16.561Z,22.46
2022-08-08T14:51:04.575Z,25.88
2022-08-08T14:53:55.073Z,23.79
2022-08-08T14:56:25.579Z,26.34
2022-08-08T14:58:54.959Z,26.60
2022-08-08T15:01:40.697Z,28.18
2022-08-08T15:04:11.521Z,26.38
2022-08-08T15:06:42.646Z,23.00
2022-08-08T15:09:11.915Z,27.63
2022-08-08T15:11:46.608Z,27.92
2022-08-08T15:14:24.952Z,27.53
2022-08-08T15:16:53.322Z,26.41
2022-08-08T15:19:23.773Z,27.21
2022-08-08T15:21:55.580Z,24.89
2022-08-08T15:24:25.418Z,28.01
2022-08-08T15:27:11.919Z,25.60
2022-08-08T15:29:47.454Z,26.35
2022-08-08T15:32:20.474Z,27.04
2022-08-08T15:34:49.835Z,24.68
2022-08-08T15:37:17.440Z,25.93
2022-08-08T15:39:46.378Z,25.82
2022-08-08T15:42:31.485Z,26.16
2022-08-08T15:45:01.468Z,24.29
2022-08-08T15:47:31.938Z,24.59
2022-08-08T15:50:03.020Z,27.57
2022-08-08T15:52:39.324Z,24.23
2022-08-08T15:55:19.040Z,25.75
2022-08-08T15:57:48.588Z,27.43
2022-08-08T16:00:27.520Z,27.47
2022-08-08T16:02:59.639Z,27.36
2022-08-08T16:05:35.538Z,24.28
2022-08-08T16:08:06.715Z,23.04
2022-08-08T16:13:10.359Z,22.96
2022-08-08T16:13:44.942Z,26.74
2022-08-08T16:16:17.355Z,27.40
2022-08-08T16:18:56.478Z,24.60
2022-08-08T16:21:27.819Z,27.21
2022-08-08T16:23:58.468Z,25.95
2022-08-08T16:26:34.633Z,27.19
2022-08-08T16:29:15.421Z,26.08
2022-08-08T16:31:48.487Z,24.93
2022-08-08T16:34:21.078Z,25.46
2022-08-08T16:36:52.648Z,24.98
2022-08-08T16:39:54.960Z,23.81
2022-08-08T16:42:28.163Z,26.83
2022-08-08T16:44:58.892Z,24.16
2022-08-08T16:47:40.189Z,26.88
2022-08-08T16:50:16.378Z,25.54
2022-08-08T16:55:03.840Z,25.64
2022-08-08T16:55:53.284Z,24.97
2022-08-08T16:58:25.701Z,25.82
2022-08-08T17:00:58.020Z,26.19
2022-08-08T17:03:57.957Z,23.48
2022-08-08T17:06:37.411Z,25.38
2022-08-08T17:09:02.525Z,23.82
2022-08-08T17:11:39.440Z,24.93
2022-08-08T17:14:19.068Z,21.36
2022-08-08T17:16:57.348Z,20.53
2022-08-08T17:19:29.087Z,24.16
2022-08-08T17:22:01.264Z,23.97
2022-08-08T17:24:32.667Z,23.33
2022-08-08T17:27:02.269Z,25.75
2022-08-08T17:29:34.114Z,25.71
2022-08-08T17:32:05.921Z,24.99
2022-08-08T17:35:00.168Z,23.56
2022-08-08T17:37:24.943Z,23.34
2022-08-08T17:40:06.054Z,19.76
2022-08-08T17:42:41.489Z,25.31
2022-08-08T17:45:23.486Z,23.11
2022-08-08T17:47:52.216Z,23.57
2022-08-08T17:50:21.899Z,24.33
2022-08-08T17:52:49.956Z,24.70
2022-08-08T17:56:06.192Z,22.05
2022-08-08T17:58:06.026Z,25.04
2022-08-08T18:00:33.227Z,24.12
2022-08-08T18:03:13.409Z,21.57
2022-08-08T18:05:49.119Z,23.81
2022-08-08T18:08:25.049Z,24.81
2022-08-08T18:11:16.895Z,23.59
2022-08-08T18:13:46.409Z,22.94
2022-08-08T18:16:16.670Z,24.06
2022-08-08T18:18:53.666Z,21.42
2022-08-08T18:21:34.635Z,24.45
2022-08-08T18:24:18.913Z,24.39
2022-08-08T18:26:53.824Z,24.18
2022-08-08T18:29:27.381Z,22.76
2022-08-08T18:32:07.534Z,24.03
2022-08-08T18:34:38.740Z,23.52
2022-08-08T18:37:08.401Z,19.39
2022-08-08T18:39:38.614Z,22.84
2022-08-08T18:42:14.295Z,19.72
2022-08-08T18:44:55.066Z,19.97
2022-08-08T18:47:25.298Z,21.27
2022-08-08T18:49:58.292Z,23.02
2022-08-08T18:52:27.843Z,22.26
2022-08-08T18:55:00.732Z,23.42
2022-08-08T18:57:44.810Z,23.37
2022-08-08T19:00:20.484Z,20.24
2022-08-08T19:02:57.098Z,21.65
2022-08-08T19:05:30.167Z,23.18
2022-08-08T19:07:59.544Z,20.06
2022-08-08T19:10:27.717Z,21.24
2022-08-08T19:12:56.526Z,22.92
2022-08-08T19:15:26.132Z,22.88
2022-08-08T19:18:33.471Z,20.59
2022-08-08T19:20:49.808Z,22.80
2022-08-08T19:23:18.194Z,21.39
2022-08-08T19:26:19.875Z,19.93
2022-08-08T19:28:38.276Z,21.90
2022-08-08T19:31:10.013Z,20.94
2022-08-08T19:34:05.040Z,17.70
2022-08-08T19:36:28.440Z,22.46
2022-08-08T19:38:57.075Z,22.47
2022-08-08T19:41:35.125Z,19.97
2022-08-08T19:44:13.262Z,17.59
2022-08-08T19:46:52.070Z,21.74
2022-08-08T19:49:19.270Z,18.34
2022-08-08T19:51:46.388Z,20.22
2022-08-08T19:54:16.240Z,22.08
2022-08-08T19:56:49.018Z,16.17
2022-08-08T19:59:22.140Z,22.01
2022-08-08T20:02:03.317Z,18.44
2022-08-08T20:04:34.569Z,16.86
2022-08-08T20:08:27.183Z,20.66
2022-08-08T20:09:56.372Z,19.72
2022-08-08T20:12:31.657Z,18.89
2022-08-08T20:15:14.986Z,21.67
2022-08-08T20:17:47.585Z,21.53
2022-08-08T20:20:19.045Z,21.69
2022-08-08T20:22:48.760Z,21.67
2022-08-08T20:25:20.395Z,21.55
2022-08-08T20:27:50.428Z,18.91
2022-08-08T20:30:35.580Z,21.41
2022-08-08T20:33:20.055Z,18.92
2022-08-08T20:35:57.280Z,20.05
2022-08-08T20:38:33.021Z,17.78
2022-08-08T20:41:05.793Z,17.29
2022-08-08T20:43:49.341Z,18.15
2022-08-08T20:46:25.324Z,19.81
2022-08-08T20:49:21.876Z,21.05
2022-08-08T20:51:49.030Z,18.63
2022-08-08T20:54:26.340Z,17.25
2022-08-08T20:57:16.303Z,20.99
2022-08-08T20:59:46.740Z,20.92
2022-08-08T21:02:19.658Z,20.03
2022-08-08T21:05:01.083Z,20.44
2022-08-08T21:08:07.774Z,19.44
2022-08-08T21:10:21.060Z,20.64
2022-08-08T21:12:52.997Z,19.36
2022-08-08T21:16:04.971Z,19.30
2022-08-08T21:18:11.609Z,18.60
2022-08-08T21:20:39.903Z,17.55
2022-08-08T21:23:09.955Z,19.15
2022-08-08T21:25:40.409Z,18.30
2022-08-08T21:28:15.757Z,20.42
2022-08-08T21:30:45.279Z,19.98
2022-08-08T21:33:19.338Z,18.08
2022-08-08T21:36:19.231Z,18.43
2022-08-08T21:38:34.557Z,15.03
2022-08-08T21:41:01.434Z,16.45
2022-08-08T21:43:33.299Z,18.32
2022-08-08T21:48:04.712Z,19.24
2022-08-08T21:48:57.963Z,20.16
2022-08-08T21:54:17.327Z,20.06
2022-08-08T21:54:52.481Z,17.38
2022-08-08T21:57:05.027Z,18.87
2022-08-08T22:00:02.813Z,19.91
2022-08-08T22:02:23.425Z,18.98
2022-08-08T22:04:55.973Z,17.11
2022-08-08T22:07:40.107Z,19.14
2022-08-08T22:10:18.334Z,19.91
2022-08-08T22:13:17.319Z,16.81
2022-08-08T22:15:59.213Z,18.40
2022-08-08T22:18:29.648Z,19.68
2022-08-08T22:21:01.434Z,16.32
2022-08-08T22:23:43.416Z,19.55
2022-08-08T22:26:29.444Z,17.13
2022-08-08T22:29:15.002Z,19.51
2022-08-08T22:31:58.701Z,19.50
2022-08-08T22:34:39.141Z,17.39
2022-08-08T22:37:28.208Z,19.45
2022-08-08T22:40:00.391Z,17.48
2022-08-08T22:42:32.034Z,19.23
2022-08-08T22:45:09.309Z,19.20
2022-08-08T22:47:49.147Z,15.60
2022-08-08T22:50:27.306Z,18.52
2022-08-08T22:54:15.686Z,18.49
2022-08-08T22:55:57.791Z,15.30
2022-08-08T22:58:34.062Z,16.66
2022-08-08T23:02:00.789Z,18.37
2022-08-08T23:03:56.293Z,17.80
2022-08-08T23:06:25.635Z,18.70
2022-08-08T23:08:56.088Z,18.64
2022-08-08T23:11:58.046Z,17.96
2022-08-08T23:14:20.859Z,18.46
2022-08-08T23:16:57.627Z,18.50
2022-08-08T23:19:32.337Z,17.13
2022-08-08T23:22:06.333Z,18.47
2022-08-08T23:24:41.380Z,16.04
2022-08-08T23:27:17.281Z,18.27
2022-08-08T23:30:00.547Z,17.95
2022-08-08T23:32:27.643Z,15.18
2022-08-08T23:34:58.889Z,17.75
2022-08-08T23:37:54.044Z,17.98
2022-08-08T23:40:22.154Z,15.39
2022-08-08T23:42:51.336Z,16.29
2022-08-08T23:45:18.532Z,17.62
2022-08-08T23:49:03.342Z,17.58
2022-08-08T23:50:57.298Z,16.98
2022-08-08T23:54:06.348Z,16.87
2022-08-08T23:56:12.053Z,16.21
2022-08-08T23:58:39.360Z,17.91
